createdAt,value
2022-09-21T00:01:14.860Z,82.46525
2022-09-21T00:06:16.643Z,82.9164
2022-09-21T00:11:18.418Z,79.8508
2022-09-21T00:16:20.270Z,82.47842
2022-09-21T00:21:21.964Z,81.59197
2022-09-21T00:26:23.939Z,83.05777
2022-09-21T00:31:25.802Z,83.84699
2022-09-21T00:36:27.608Z,80.67667
2022-09-21T00:41:29.383Z,79.60271
2022-09-21T00:46:31.123Z,83.71041
2022-09-21T00:51:32.877Z,81.34209
2022-09-21T00:56:35.187Z,80.92347
2022-09-21T01:01:36.811Z,80.92153
2022-09-21T01:06:38.420Z,81.28016
2022-09-21T01:11:40.083Z,81.78353
2022-09-21T01:16:41.738Z,81.47038
2022-09-21T01:21:43.428Z,81.2849
2022-09-21T01:26:45.724Z,81.61349
2022-09-21T01:31:47.380Z,79.35574
2022-09-21T01:36:49.064Z,84.83545
2022-09-21T01:41:50.838Z,80.6802
2022-09-21T01:46:52.482Z,78.12203
2022-09-21T01:51:54.136Z,82.12742
2022-09-21T01:56:56.431Z,83.50733
2022-09-21T02:01:58.057Z,82.33363
2022-09-21T02:06:59.855Z,84.90651
2022-09-21T02:12:01.434Z,83.47109
2022-09-21T02:17:02.853Z,84.17482
2022-09-21T02:22:04.304Z,83.26903
2022-09-21T02:27:07.167Z,85.20728
2022-09-21T02:32:08.621Z,82.55261
2022-09-21T02:37:10.121Z,83.70578
2022-09-21T02:42:11.650Z,83.06782
2022-09-21T02:47:13.113Z,83.47843
2022-09-21T02:52:14.789Z,83.57932
2022-09-21T02:57:17.262Z,83.26441
2022-09-21T03:02:19.097Z,81.80645
2022-09-21T03:07:20.836Z,82.70392
2022-09-21T03:12:22.754Z,85.65551
2022-09-21T03:17:24.489Z,83.30926
2022-09-21T03:22:26.227Z,84.1382
2022-09-21T03:27:28.946Z,83.55396
2022-09-21T03:32:30.688Z,83.78263
2022-09-21T03:37:32.431Z,83.88585
2022-09-21T03:42:34.170Z,87.47628
2022-09-21T03:47:35.897Z,84.83734
2022-09-21T03:52:37.656Z,83.06649
2022-09-21T03:57:40.105Z,84.80901
2022-09-21T04:02:41.922Z,79.99837
2022-09-21T04:07:44.504Z,83.06151
2022-09-21T04:12:46.300Z,80.24954
2022-09-21T04:17:48.054Z,82.31976
2022-09-21T04:22:49.789Z,84.05469
2022-09-21T04:27:51.771Z,81.55968
2022-09-21T04:32:53.498Z,83.34175
2022-09-21T04:37:55.225Z,82.50822
2022-09-21T04:42:57.171Z,83.66304
2022-09-21T04:47:58.949Z,82.785
2022-09-21T04:53:00.723Z,84.43341
2022-09-21T04:58:02.596Z,85.28904
2022-09-21T05:03:04.077Z,85.41319
2022-09-21T05:08:05.565Z,84.96942
2022-09-21T05:13:07.129Z,83.4266
2022-09-21T05:18:08.675Z,80.8754
2022-09-21T05:23:12.592Z,83.04774
2022-09-21T05:28:18.223Z,83.59254
2022-09-21T05:33:19.983Z,83.26984
2022-09-21T05:38:21.760Z,83.35664
2022-09-21T05:43:23.616Z,83.13922
2022-09-21T05:48:25.416Z,79.9952
2022-09-21T05:53:27.165Z,82.78771
2022-09-21T05:58:29.239Z,84.24677
2022-09-21T06:03:30.968Z,81.83609
2022-09-21T06:08:32.671Z,81.32897
2022-09-21T06:13:34.508Z,79.58473
2022-09-21T06:18:36.264Z,78.7809
2022-09-21T06:23:38.496Z,77.85625
2022-09-21T06:28:40.634Z,71.85875
2022-09-21T06:33:46.169Z,71.68445
2022-09-21T06:38:49.658Z,67.84343
2022-09-21T06:43:51.342Z,69.05375
2022-09-21T06:48:52.916Z,67.89886
2022-09-21T06:53:54.382Z,70.72573
2022-09-21T06:58:56.026Z,70.82778
2022-09-21T07:03:57.655Z,69.37774
2022-09-21T07:14:31.575Z,67.75784
2022-09-21T07:19:33.398Z,65.02749
2022-09-21T07:24:35.171Z,64.38684
2022-09-21T07:29:37.340Z,64.12915
2022-09-21T07:34:39.170Z,63.36023
2022-09-21T07:39:40.946Z,64.42274
2022-09-21T07:44:42.735Z,61.96255
2022-09-21T07:49:44.566Z,60.67545
2022-09-21T07:54:46.314Z,60.35507
2022-09-21T07:59:48.315Z,58.99426
2022-09-21T08:04:50.073Z,55.12661
2022-09-21T08:09:51.840Z,56.0715
2022-09-21T08:14:53.583Z,56.48245
2022-09-21T08:19:55.291Z,53.58294
2022-09-21T08:24:56.995Z,51.67511
2022-09-21T08:29:59.629Z,54.8162
2022-09-21T08:35:01.379Z,50.77261
2022-09-21T08:40:02.888Z,48.78433
2022-09-21T08:45:04.405Z,49.0557
2022-09-21T08:50:05.907Z,48.42804
2022-09-21T08:55:07.350Z,46.08017
2022-09-21T09:00:09.101Z,46.73955
2022-09-21T09:05:10.572Z,43.35487
2022-09-21T09:10:12.249Z,48.39278
2022-09-21T09:15:13.716Z,48.88256
2022-09-21T09:20:15.304Z,47.23175
2022-09-21T09:25:16.762Z,47.33797
2022-09-21T09:30:19.432Z,51.06166
2022-09-21T09:35:21.177Z,52.64671
2022-09-21T09:40:23.059Z,52.51922
2022-09-21T09:45:26.167Z,52.90045
2022-09-21T09:50:27.969Z,53.73306
2022-09-21T09:55:29.582Z,51.45972
2022-09-21T10:00:31.505Z,53.2682
2022-09-21T10:05:33.226Z,51.21262
2022-09-21T10:10:34.662Z,48.77798
2022-09-21T10:15:36.570Z,46.97359
2022-09-21T10:20:38.244Z,46.55715
2022-09-21T10:25:40.398Z,51.37916
2022-09-21T10:30:43.131Z,46.58521
2022-09-21T10:35:44.776Z,50.92925
2022-09-21T10:40:46.497Z,49.92717
2022-09-21T10:45:48.266Z,49.74324
2022-09-21T10:50:49.915Z,43.76802
2022-09-21T10:56:04.804Z,44.62659
2022-09-21T11:01:16.648Z,47.22905
2022-09-21T11:06:18.372Z,46.24915
2022-09-21T11:11:19.809Z,44.29609
2022-09-21T11:16:21.731Z,45.62532
2022-09-21T11:21:23.520Z,47.59578
2022-09-21T11:26:25.259Z,51.00527
2022-09-21T11:31:27.423Z,48.65342
2022-09-21T11:36:29.138Z,47.30326
2022-09-21T11:41:30.860Z,47.69086
2022-09-21T11:46:32.703Z,47.12481
2022-09-21T11:51:34.442Z,45.16949
2022-09-21T11:56:36.177Z,45.40903
2022-09-21T12:01:38.094Z,45.25929
2022-09-21T12:06:39.527Z,47.54077
2022-09-21T12:11:41.254Z,46.46975
2022-09-21T12:16:43.169Z,47.85591
2022-09-21T12:21:44.866Z,45.67548
2022-09-21T12:26:46.634Z,44.27195
2022-09-21T12:31:48.485Z,45.99044
2022-09-21T12:36:50.129Z,44.94957
2022-09-21T12:41:51.783Z,44.26159
2022-09-21T12:46:53.664Z,45.69554
2022-09-21T12:51:55.405Z,43.4784
2022-09-21T12:56:57.073Z,44.67981
2022-09-21T13:01:59.163Z,45.99544
2022-09-21T13:07:00.930Z,47.5164
2022-09-21T13:12:02.635Z,46.19645
2022-09-21T13:17:04.092Z,46.21464
2022-09-21T13:22:05.584Z,47.31626
2022-09-21T13:27:07.087Z,46.57342
2022-09-21T13:32:09.131Z,46.56005
2022-09-21T13:37:10.744Z,44.69291
2022-09-21T13:42:12.203Z,46.58887
2022-09-21T13:47:13.690Z,43.71687
2022-09-21T13:52:15.205Z,45.85675
2022-09-21T13:57:16.953Z,46.14786
2022-09-21T14:02:18.991Z,45.48205
2022-09-21T14:07:20.693Z,44.58736
2022-09-21T14:12:22.347Z,42.7609
2022-09-21T14:17:25.567Z,46.95445
2022-09-21T14:22:27.396Z,47.63529
2022-09-21T14:27:29.175Z,47.86379
2022-09-21T14:32:31.938Z,47.26575
2022-09-21T14:37:33.580Z,48.01104
2022-09-21T14:42:35.348Z,45.97677
2022-09-21T14:47:37.217Z,50.02977
2022-09-21T14:52:38.921Z,51.81499
2022-09-21T14:57:40.639Z,52.49833
2022-09-21T15:02:42.533Z,52.51533
2022-09-21T15:07:44.398Z,52.12876
2022-09-21T15:12:46.107Z,52.33175
2022-09-21T15:17:47.874Z,55.78084
2022-09-21T15:22:49.594Z,56.53311
2022-09-21T15:27:51.394Z,57.19079
2022-09-21T15:32:53.315Z,55.88077
2022-09-21T15:37:55.087Z,57.93357
2022-09-21T15:42:56.807Z,58.46449
2022-09-21T15:47:58.560Z,59.61214
2022-09-21T15:53:00.275Z,61.33019
2022-09-21T15:58:02.085Z,61.95606
2022-09-21T16:03:04.691Z,62.12056
2022-09-21T16:08:06.591Z,62.49049
2022-09-21T16:13:08.042Z,63.85872
2022-09-21T16:18:09.495Z,62.13253
2022-09-21T16:23:11.054Z,62.78017
2022-09-21T16:28:12.504Z,66.45896
2022-09-21T16:33:14.335Z,66.17821
2022-09-21T16:38:15.861Z,65.56768
2022-09-21T16:43:17.580Z,67.00657
2022-09-21T16:48:19.402Z,69.45546
2022-09-21T16:53:21.135Z,70.10995
2022-09-21T16:58:22.858Z,70.12228
2022-09-21T17:03:24.706Z,68.76208
2022-09-21T17:08:26.408Z,69.36915
2022-09-21T17:13:28.158Z,70.63097
2022-09-21T17:18:29.955Z,72.81864
2022-09-21T17:23:31.674Z,72.39985
2022-09-21T17:28:33.408Z,71.37998
2022-09-21T17:33:35.345Z,71.44888
2022-09-21T17:38:36.970Z,74.16911
2022-09-21T17:43:38.604Z,75.26777
2022-09-21T17:48:40.279Z,75.30174
2022-09-21T17:53:41.936Z,77.1037
2022-09-21T17:58:43.553Z,79.71424
2022-09-21T18:03:45.503Z,79.07169
2022-09-21T18:08:47.145Z,76.83869
2022-09-21T18:13:48.868Z,79.9919
2022-09-21T18:18:50.600Z,80.25534
2022-09-21T18:23:52.405Z,79.66267
2022-09-21T18:28:54.026Z,79.90462
2022-09-21T18:33:55.981Z,79.69626
2022-09-21T18:38:57.614Z,80.88526
2022-09-21T18:43:59.267Z,79.98498
2022-09-21T18:49:00.946Z,83.83069
2022-09-21T18:54:02.404Z,83.98247
2022-09-21T18:59:03.822Z,87.08994
2022-09-21T19:04:05.475Z,87.85164
2022-09-21T19:09:07.245Z,87.64739
2022-09-21T19:14:09.139Z,87.30079
2022-09-21T19:19:10.584Z,87.51366
2022-09-21T19:24:12.014Z,86.25381
2022-09-21T19:29:13.669Z,87.59436
2022-09-21T19:34:15.540Z,83.06353
2022-09-21T19:39:17.014Z,87.88166
2022-09-21T19:44:18.472Z,87.11889
2022-09-21T19:49:19.917Z,88.75189
2022-09-21T19:54:21.357Z,88.50769
2022-09-21T19:59:23.023Z,85.72063
2022-09-21T20:04:24.675Z,83.58351
2022-09-21T20:09:26.110Z,87.79015
2022-09-21T20:14:27.547Z,92.86351
2022-09-21T20:19:29.027Z,92.59809
2022-09-21T20:24:30.456Z,90.24541
2022-09-21T20:29:31.920Z,93.0723
2022-09-21T20:34:33.796Z,92.63995
2022-09-21T20:39:35.240Z,92.07107
2022-09-21T20:44:36.696Z,91.66421
2022-09-21T20:49:38.204Z,94.24288
2022-09-21T20:54:39.988Z,94.07368
2022-09-21T20:59:41.704Z,94.97526
2022-09-21T21:04:43.896Z,94.50754
2022-09-21T21:09:46.114Z,94.72456
2022-09-21T21:14:47.558Z,94.44705
2022-09-21T21:19:49.105Z,93.97218
2022-09-21T21:24:50.644Z,94.65972
2022-09-21T21:29:52.187Z,93.40047
2022-09-21T21:34:53.874Z,88.26869
2022-09-21T21:39:55.376Z,93.56365
2022-09-21T21:44:56.945Z,91.83136
2022-09-21T21:49:58.493Z,92.52902
2022-09-21T21:54:59.975Z,92.42759
2022-09-21T22:00:01.486Z,95.46506
2022-09-21T22:05:03.104Z,92.65949
2022-09-21T22:10:04.629Z,95.98181
2022-09-21T22:15:06.068Z,92.66794
2022-09-21T22:20:07.732Z,91.91634
2022-09-21T22:25:09.469Z,90.39086
2022-09-21T22:30:10.893Z,89.33573
2022-09-21T22:35:12.554Z,87.60081
2022-09-21T22:40:14.224Z,88.96956
2022-09-21T22:45:16.070Z,87.51894
2022-09-21T22:50:17.941Z,87.11705
2022-09-21T22:55:19.670Z,94.03721
2022-09-21T23:00:21.165Z,92.68887
2022-09-21T23:05:23.291Z,91.28586
2022-09-21T23:10:25.062Z,89.37547
2022-09-21T23:15:26.782Z,87.84267
2022-09-21T23:20:28.592Z,88.77843
2022-09-21T23:25:30.377Z,86.5369
2022-09-21T23:30:31.943Z,88.45067
2022-09-21T23:35:33.821Z,88.07227
2022-09-21T23:40:35.639Z,84.34701
2022-09-21T23:45:37.145Z,86.64917
2022-09-21T23:50:38.993Z,86.37228
2022-09-21T23:55:40.723Z,84.73738
